Time;durP1;ratioP1;P1;durP2;ratioP2;P2;SDS_P1;SDS_P2;PMS_P1;PMS_P2;Temp;Humidity;BMP_temperature;BMP_pressure;BME280_temperature;BME280_humidity;BME280_pressure;Samples;Min_cycle;Max_cycle;Signal;HPM_P1;HPM_P2
2023/01/25 00:01:43;;;;;;;59.63;25.55;;;2.60;99.90;;;;;;6184208;23;20251;-90
2023/01/25 00:04:08;;;;;;;58.22;24.13;;;2.50;99.90;;;;;;6210939;23;20031;-89
2023/01/25 00:06:34;;;;;;;50.03;22.38;;;2.60;99.90;;;;;;6210082;23;20005;-89
2023/01/25 00:09:00;;;;;;;52.47;23.98;;;2.60;99.90;;;;;;6210478;23;20062;-88
2023/01/25 00:11:25;;;;;;;58.65;25.25;;;2.60;99.90;;;;;;6211234;23;20039;-88
2023/01/25 00:13:54;;;;;;;62.63;28.40;;;2.70;99.90;;;;;;6211239;23;20024;-89
2023/01/25 00:16:20;;;;;;;62.10;26.00;;;2.70;99.90;;;;;;6211867;23;20001;-90
2023/01/25 00:18:47;;;;;;;65.30;26.33;;;2.60;99.90;;;;;;6209672;23;20063;-90
2023/01/25 00:21:21;;;;;;;61.35;26.80;;;2.60;99.90;;;;;;6210602;23;20032;-90
2023/01/25 00:23:47;;;;;;;63.05;28.30;;;2.60;99.90;;;;;;6210690;23;20404;-89
2023/01/25 00:26:13;;;;;;;65.57;28.05;;;2.50;99.90;;;;;;6210866;23;20349;-89
2023/01/25 00:28:39;;;;;;;60.15;26.42;;;2.50;99.90;;;;;;6210976;23;20008;-89
2023/01/25 00:31:06;;;;;;;63.38;25.77;;;2.50;99.90;;;;;;6210307;23;20079;-87
2023/01/25 00:33:59;;;;;;;55.03;24.13;;;2.50;99.90;;;;;;6210425;23;20007;-89
2023/01/25 00:36:36;;;;;;;56.30;23.83;;;2.40;99.90;;;;;;6211658;23;20028;-89
2023/01/25 00:39:03;;;;;;;58.38;24.00;;;2.50;99.90;;;;;;6209992;23;20040;-90
2023/01/25 00:41:29;;;;;;;57.95;24.95;;;2.50;99.90;;;;;;6209545;23;20449;-89
2023/01/25 00:43:56;;;;;;;55.15;23.38;;;2.60;99.90;;;;;;6211639;23;20001;-90
2023/01/25 00:46:21;;;;;;;53.65;24.42;;;2.50;99.90;;;;;;6211438;23;20000;-89
2023/01/25 00:48:47;;;;;;;56.45;24.15;;;2.60;99.90;;;;;;6209960;23;20059;-88
2023/01/25 00:51:14;;;;;;;57.70;24.88;;;2.60;99.90;;;;;;6183043;23;20005;-89
2023/01/25 00:53:40;;;;;;;58.83;25.38;;;2.70;99.90;;;;;;6209912;23;20007;-89
2023/01/25 00:56:06;;;;;;;58.67;24.73;;;2.70;99.90;;;;;;6183292;23;20004;-88
2023/01/25 00:58:32;;;;;;;59.53;24.50;;;2.70;99.90;;;;;;6210021;23;20346;-91
2023/01/25 01:00:57;;;;;;;63.15;28.02;;;2.70;99.90;;;;;;6183790;23;20008;-90
2023/01/25 01:03:23;;;;;;;61.80;26.42;;;2.60;99.90;;;;;;6184838;23;20000;-89
2023/01/25 01:06:01;;;;;;;52.53;24.70;;;2.50;99.90;;;;;;6183713;23;20009;-88
2023/01/25 01:08:27;;;;;;;59.22;27.02;;;2.50;99.90;;;;;;6210932;23;20005;-88
2023/01/25 01:10:58;;;;;;;64.15;25.92;;;2.40;99.90;;;;;;6210145;23;20058;-88
2023/01/25 01:13:24;;;;;;;63.38;27.80;;;2.40;99.90;;;;;;6210331;23;20008;-88
2023/01/25 01:15:49;;;;;;;67.80;26.27;;;2.40;99.90;;;;;;6210574;23;20001;-87
2023/01/25 01:18:15;;;;;;;57.78;25.40;;;2.40;99.90;;;;;;6183543;23;20014;-88
2023/01/25 01:20:46;;;;;;;62.50;26.33;;;2.30;99.90;;;;;;6210141;23;20449;-88
2023/01/25 01:23:12;;;;;;;60.58;25.38;;;2.50;99.90;;;;;;6209932;23;20005;-88
2023/01/25 01:25:37;;;;;;;65.05;27.50;;;2.60;99.90;;;;;;6209154;23;20078;-88
2023/01/25 01:28:03;;;;;;;65.45;26.65;;;2.50;99.90;;;;;;6210326;23;20004;-88
2023/01/25 01:30:29;;;;;;;59.45;25.13;;;2.60;99.90;;;;;;6210113;23;20314;-86
2023/01/25 01:32:54;;;;;;;61.05;26.00;;;2.50;99.90;;;;;;6184257;23;20507;-89
2023/01/25 01:35:20;;;;;;;66.93;26.08;;;2.50;99.90;;;;;;6210023;23;20342;-89
2023/01/25 01:37:45;;;;;;;70.68;27.38;;;2.40;99.90;;;;;;6209489;23;20072;-89
2023/01/25 01:40:14;;;;;;;64.18;26.15;;;2.40;99.90;;;;;;6183182;23;20016;-87
2023/01/25 01:43:03;;;;;;;63.78;27.10;;;2.40;99.90;;;;;;6211059;23;20499;-88
2023/01/25 01:45:48;;;;;;;63.70;26.98;;;2.40;99.90;;;;;;6211036;23;20005;-88
2023/01/25 01:48:19;;;;;;;61.42;27.15;;;2.30;99.90;;;;;;6209989;23;20054;-87
2023/01/25 01:50:46;;;;;;;69.43;28.17;;;2.40;99.90;;;;;;6209045;23;20009;-90
2023/01/25 01:53:11;;;;;;;63.78;29.33;;;2.40;99.90;;;;;;6209931;23;20040;-89
2023/01/25 01:55:38;;;;;;;63.25;27.83;;;2.30;99.90;;;;;;6210019;23;20012;-89
2023/01/25 01:58:06;;;;;;;64.13;27.92;;;2.30;99.90;;;;;;6209320;23;20087;-88
2023/01/25 02:00:35;;;;;;;66.57;28.98;;;2.40;99.90;;;;;;6209884;23;20556;-89
2023/01/25 02:03:00;;;;;;;;;;;2.30;99.90;;;;;;6214114;23;20000;-87
2023/01/25 02:05:46;;;;;;;63.42;28.35;;;2.30;99.90;;;;;;6186411;23;19907;-90
2023/01/25 02:08:14;;;;;;;70.40;27.98;;;2.30;99.90;;;;;;6187236;23;20008;-89
2023/01/25 02:10:42;;;;;;;61.45;26.80;;;2.20;99.90;;;;;;6186677;23;20008;-87
2023/01/25 02:13:08;;;;;;;68.28;28.50;;;2.20;99.90;;;;;;6212827;23;20000;-89
2023/01/25 02:15:46;;;;;;;67.22;27.98;;;2.20;99.90;;;;;;6212944;23;19997;-88
2023/01/25 02:18:12;;;;;;;75.72;29.65;;;2.20;99.90;;;;;;6186318;23;20008;-90
2023/01/25 02:20:44;;;;;;;79.85;30.48;;;2.10;99.90;;;;;;6212607;23;20011;-89
2023/01/25 02:23:21;;;;;;;67.95;29.13;;;2.10;99.90;;;;;;6185928;23;20395;-87
2023/01/25 02:25:47;;;;;;;74.32;29.88;;;2.10;99.90;;;;;;6212959;23;19997;-86
2023/01/25 02:28:19;;;;;;;66.68;28.80;;;2.10;99.90;;;;;;6213145;23;20013;-88
2023/01/25 02:30:46;;;;;;;74.38;29.95;;;2.10;99.90;;;;;;6213087;23;19996;-86
2023/01/25 02:33:11;;;;;;;66.93;29.13;;;2.10;99.90;;;;;;6186946;23;20019;-88
2023/01/25 02:35:47;;;;;;;72.65;29.50;;;2.10;99.90;;;;;;6186632;23;20036;-90
2023/01/25 02:38:15;;;;;;;67.57;28.80;;;2.20;99.90;;;;;;6213139;23;20005;-87
2023/01/25 02:40:46;;;;;;;70.60;29.83;;;2.20;99.90;;;;;;6213146;23;20012;-89
2023/01/25 02:43:12;;;;;;;70.45;30.13;;;2.10;99.90;;;;;;6186439;23;20008;-89
2023/01/25 02:45:38;;;;;;;71.45;28.48;;;2.00;99.90;;;;;;6186806;23;20035;-90
2023/01/25 02:48:04;;;;;;;70.38;26.77;;;2.00;99.90;;;;;;6213087;23;20001;-86
2023/01/25 02:50:30;;;;;;;70.75;28.60;;;2.00;99.90;;;;;;6214145;23;20024;-88
2023/01/25 02:52:55;;;;;;;70.90;28.33;;;2.10;99.90;;;;;;6186080;23;20004;-87
2023/01/25 02:55:21;;;;;;;69.53;29.30;;;2.20;99.90;;;;;;6186504;23;20015;-87
2023/01/25 02:57:46;;;;;;;69.03;29.98;;;2.30;99.90;;;;;;6186899;23;20000;-88
2023/01/25 03:00:12;;;;;;;65.32;26.98;;;2.10;99.90;;;;;;6213192;23;20012;-88
2023/01/25 03:02:38;;;;;;;69.95;28.38;;;2.10;99.90;;;;;;6186309;23;20001;-87
2023/01/25 03:05:05;;;;;;;68.65;28.50;;;2.10;99.90;;;;;;6214051;23;20008;-86
2023/01/25 03:07:31;;;;;;;74.00;29.63;;;2.20;99.90;;;;;;6214181;23;20009;-88
2023/01/25 03:09:56;;;;;;;78.25;29.80;;;2.10;99.90;;;;;;6212941;23;20008;-88
2023/01/25 03:12:22;;;;;;;70.03;27.90;;;2.00;99.90;;;;;;6213138;23;20008;-87
2023/01/25 03:14:47;;;;;;;73.43;28.42;;;2.00;99.90;;;;;;6211589;23;20071;-87
2023/01/25 03:17:13;;;;;;;69.95;28.17;;;2.00;99.90;;;;;;6211268;23;20005;-89
2023/01/25 03:19:38;;;;;;;68.28;27.85;;;2.00;99.90;;;;;;6211994;23;20012;-90
2023/01/25 03:22:05;;;;;;;70.93;27.67;;;2.00;99.90;;;;;;6185727;23;20441;-87
2023/01/25 03:24:31;;;;;;;73.22;26.88;;;2.10;99.90;;;;;;6212157;23;20004;-89
2023/01/25 03:27:17;;;;;;;63.65;26.45;;;2.10;99.90;;;;;;6179547;23;20485;-88
2023/01/25 03:29:43;;;;;;;76.43;27.80;;;2.20;99.90;;;;;;6179935;23;20442;-89
2023/01/25 03:32:09;;;;;;;67.28;26.70;;;2.20;99.90;;;;;;6180207;23;20132;-86
2023/01/25 03:34:35;;;;;;;70.32;27.08;;;2.10;99.90;;;;;;6182037;23;20426;-85
2023/01/25 03:37:01;;;;;;;77.60;28.02;;;2.00;99.90;;;;;;6179403;23;20504;-85
2023/01/25 03:39:27;;;;;;;72.65;26.55;;;1.90;99.90;;;;;;6180523;23;20009;-87
2023/01/25 03:41:53;;;;;;;72.55;26.40;;;1.90;99.90;;;;;;6181199;23;20056;-85
2023/01/25 03:44:19;;;;;;;70.95;27.25;;;2.00;99.90;;;;;;6181068;23;20005;-86
2023/01/25 03:46:44;;;;;;;65.25;25.90;;;2.10;99.90;;;;;;6180784;23;20008;-87
2023/01/25 03:49:10;;;;;;;74.93;28.17;;;2.10;99.90;;;;;;6179995;23;20352;-87
2023/01/25 03:51:36;;;;;;;67.68;25.88;;;2.10;99.90;;;;;;6182742;23;20063;-86
2023/01/25 03:54:02;;;;;;;72.53;26.98;;;2.00;99.90;;;;;;6182206;23;20013;-85
2023/01/25 03:56:28;;;;;;;73.80;26.55;;;1.90;99.90;;;;;;6181343;23;20023;-86
2023/01/25 03:58:53;;;;;;;71.00;26.77;;;2.00;99.90;;;;;;6181324;23;20509;-85
2023/01/25 04:01:19;;;;;;;66.38;26.45;;;2.00;99.90;;;;;;6181026;23;20013;-85
2023/01/25 04:03:44;;;;;;;73.40;26.38;;;2.00;99.90;;;;;;6181083;23;20041;-87
2023/01/25 04:06:10;;;;;;;73.10;26.67;;;2.00;99.90;;;;;;6181199;23;20050;-85
2023/01/25 04:08:36;;;;;;;72.53;24.80;;;1.90;99.90;;;;;;6182053;23;20100;-85
2023/01/25 04:11:05;;;;;;;66.05;23.90;;;1.90;99.90;;;;;;6180329;23;20398;-86
2023/01/25 04:13:33;;;;;;;62.78;23.65;;;1.80;99.90;;;;;;6179636;23;20398;-87
2023/01/25 04:15:59;;;;;;;;;;;1.80;99.90;;;;;;6181652;23;20001;-86
2023/01/25 04:18:25;;;;;;;68.85;23.25;;;1.80;99.90;;;;;;6180965;23;19958;-86
2023/01/25 04:20:54;;;;;;;74.82;26.20;;;1.90;99.90;;;;;;6181293;23;20075;-86
2023/01/25 04:23:21;;;;;;;61.70;23.20;;;1.90;99.90;;;;;;6179262;23;20006;-87
2023/01/25 04:25:54;;;;;;;62.88;23.35;;;1.80;99.90;;;;;;6178793;23;20013;-86
2023/01/25 04:28:19;;;;;;;58.20;22.58;;;1.80;99.90;;;;;;6210762;23;20004;-86
2023/01/25 04:30:45;;;;;;;59.38;22.52;;;1.80;99.90;;;;;;6184218;23;20019;-87
2023/01/25 04:33:11;;;;;;;56.90;21.35;;;1.90;99.90;;;;;;6210433;23;20000;-86
2023/01/25 04:35:37;;;;;;;63.50;22.45;;;1.80;99.90;;;;;;6212122;23;20009;-84
2023/01/25 04:38:03;;;;;;;62.22;22.40;;;1.80;99.90;;;;;;6184212;23;20323;-85
2023/01/25 04:40:29;;;;;;;59.38;23.35;;;1.90;99.90;;;;;;6210996;23;20406;-86
2023/01/25 04:42:55;;;;;;;66.90;23.15;;;1.90;99.90;;;;;;6183398;23;20001;-87
2023/01/25 04:45:21;;;;;;;61.83;21.85;;;1.80;99.90;;;;;;6211422;23;20007;-86
2023/01/25 04:47:47;;;;;;;58.63;21.85;;;1.80;99.90;;;;;;6210675;23;20008;-85
2023/01/25 04:50:13;;;;;;;61.22;22.55;;;1.80;99.90;;;;;;6209923;23;20024;-86
2023/01/25 04:52:39;;;;;;;66.32;23.17;;;1.90;99.90;;;;;;6211819;23;20445;-87
2023/01/25 04:55:05;;;;;;;64.32;23.50;;;1.90;99.90;;;;;;6211495;23;20001;-86
2023/01/25 04:57:30;;;;;;;60.17;24.50;;;2.10;99.90;;;;;;6183951;23;20099;-85
2023/01/25 04:59:56;;;;;;;63.80;22.73;;;2.20;99.90;;;;;;6210449;23;20079;-86
2023/01/25 05:02:22;;;;;;;66.82;24.40;;;2.10;99.90;;;;;;6210449;23;20001;-86
2023/01/25 05:04:47;;;;;;;61.97;23.45;;;2.10;99.90;;;;;;6210552;23;20453;-87
2023/01/25 05:07:13;;;;;;;60.25;23.30;;;2.10;99.90;;;;;;6210463;23;20075;-86
2023/01/25 05:09:38;;;;;;;68.70;26.50;;;2.00;99.90;;;;;;6185169;23;20009;-86
2023/01/25 05:12:10;;;;;;;64.88;24.60;;;2.00;99.90;;;;;;6210490;23;20005;-87
2023/01/25 05:14:37;;;;;;;69.57;25.00;;;2.00;99.90;;;;;;6211134;23;20004;-87
2023/01/25 05:17:03;;;;;;;69.40;25.67;;;2.10;99.90;;;;;;6210138;23;20445;-86
2023/01/25 05:19:28;;;;;;;70.15;27.13;;;2.30;99.90;;;;;;6210539;23;20009;-86
2023/01/25 05:21:57;;;;;;;71.75;26.80;;;2.20;99.90;;;;;;6210721;23;20360;-86
2023/01/25 05:24:24;;;;;;;79.47;28.10;;;2.20;99.90;;;;;;6210602;23;20005;-86
2023/01/25 05:27:05;;;;;;;82.25;30.00;;;2.10;99.90;;;;;;6210403;23;20012;-86
2023/01/25 05:29:31;;;;;;;71.68;27.88;;;2.20;99.90;;;;;;6210323;23;20001;-89
2023/01/25 05:31:58;;;;;;;80.15;28.75;;;2.00;99.90;;;;;;6183101;23;20491;-88
2023/01/25 05:34:24;;;;;;;80.88;28.88;;;1.90;99.90;;;;;;6209575;23;20001;-85
2023/01/25 05:36:50;;;;;;;73.68;28.25;;;1.80;99.90;;;;;;6182673;23;20404;-88
2023/01/25 05:39:16;;;;;;;64.88;27.13;;;1.80;99.90;;;;;;6210215;23;20008;-87
2023/01/25 05:41:42;;;;;;;81.70;28.17;;;1.90;99.90;;;;;;6210958;23;20343;-86
2023/01/25 05:44:08;;;;;;;72.80;25.85;;;1.90;99.90;;;;;;6210948;23;20068;-87
2023/01/25 05:46:34;;;;;;;70.20;26.33;;;1.90;99.90;;;;;;6210448;23;20080;-85
2023/01/25 05:48:59;;;;;;;77.75;27.98;;;1.90;99.90;;;;;;6209547;23;20015;-86
2023/01/25 05:51:25;;;;;;;73.13;27.95;;;1.90;99.90;;;;;;6177426;23;20028;-85
2023/01/25 05:53:54;;;;;;;81.20;28.30;;;1.80;99.90;;;;;;6182875;23;20046;-86
2023/01/25 05:56:20;;;;;;;74.00;27.15;;;1.80;99.90;;;;;;6210127;23;20024;-86
2023/01/25 05:58:45;;;;;;;74.35;28.15;;;1.70;99.90;;;;;;6208954;23;20000;-84
2023/01/25 06:01:11;;;;;;;75.82;27.33;;;1.70;99.90;;;;;;6211126;23;20468;-85
2023/01/25 06:03:37;;;;;;;79.18;28.83;;;1.60;99.90;;;;;;6210238;23;20005;-88
2023/01/25 06:06:02;;;;;;;72.78;27.27;;;1.50;99.90;;;;;;6210193;23;20005;-84
2023/01/25 06:08:29;;;;;;;69.95;25.85;;;1.60;99.90;;;;;;6182832;23;20004;-86
2023/01/25 06:10:55;;;;;;;76.13;26.83;;;1.80;99.90;;;;;;6209902;23;20467;-86
2023/01/25 06:13:21;;;;;;;74.10;26.35;;;1.70;99.90;;;;;;6184180;23;20005;-86
2023/01/25 06:15:56;;;;;;;69.85;25.75;;;1.80;99.90;;;;;;6210371;23;19996;-86
2023/01/25 06:18:25;;;;;;;66.53;25.38;;;2.00;99.90;;;;;;6210043;23;20007;-85
2023/01/25 06:20:51;;;;;;;70.55;26.83;;;2.10;99.90;;;;;;6210067;23;20453;-85
2023/01/25 06:23:16;;;;;;;64.68;24.50;;;2.10;99.90;;;;;;6209372;23;19996;-86
2023/01/25 06:25:42;;;;;;;75.75;25.80;;;2.10;99.90;;;;;;6184253;23;20009;-85
2023/01/25 06:28:08;;;;;;;69.97;27.00;;;2.20;99.90;;;;;;6178340;23;20009;-86
2023/01/25 06:30:34;;;;;;;73.97;27.63;;;2.10;99.90;;;;;;6179924;23;20453;-86
2023/01/25 06:33:00;;;;;;;71.70;28.27;;;2.10;99.90;;;;;;6178544;23;20005;-86
2023/01/25 06:35:27;;;;;;;61.25;24.75;;;2.10;99.90;;;;;;6180080;23;20062;-86
2023/01/25 06:37:57;;;;;;;67.22;25.33;;;2.00;99.90;;;;;;6179629;23;20125;-86
2023/01/25 06:40:23;;;;;;;65.43;26.92;;;2.10;99.90;;;;;;6179844;23;20457;-86
2023/01/25 06:42:48;;;;;;;67.82;27.08;;;2.00;99.90;;;;;;6177924;23;20353;-84
2023/01/25 06:45:14;;;;;;;64.78;27.88;;;2.00;99.90;;;;;;6180966;23;20001;-85
2023/01/25 06:47:40;;;;;;;65.88;26.95;;;2.00;99.90;;;;;;6174221;23;20005;-85
2023/01/25 06:50:06;;;;;;;68.60;28.67;;;2.00;99.90;;;;;;6177769;23;20169;-85
2023/01/25 06:52:35;;;;;;;74.20;29.50;;;2.00;99.90;;;;;;6179665;23;20088;-85
2023/01/25 06:55:02;;;;;;;74.10;29.90;;;1.90;99.90;;;;;;6178577;23;20438;-86
2023/01/25 06:57:28;;;;;;;77.30;30.10;;;1.90;99.90;;;;;;6180497;23;20005;-85
2023/01/25 06:59:54;;;;;;;74.28;29.25;;;1.90;99.90;;;;;;6179556;23;20445;-84
2023/01/25 07:02:19;;;;;;;76.68;30.52;;;1.90;99.90;;;;;;6180073;23;20068;-83
2023/01/25 07:04:46;;;;;;;78.53;31.02;;;1.80;99.90;;;;;;6182240;23;20334;-86
2023/01/25 07:07:11;;;;;;;75.63;30.52;;;1.80;99.90;;;;;;6182446;23;20004;-84
2023/01/25 07:09:37;;;;;;;75.53;29.50;;;1.80;99.90;;;;;;6181722;23;20004;-86
2023/01/25 07:12:03;;;;;;;77.10;29.15;;;1.80;99.90;;;;;;6181964;23;20080;-85
2023/01/25 07:14:30;;;;;;;76.85;30.55;;;1.80;99.90;;;;;;6180668;23;20002;-84
2023/01/25 07:16:55;;;;;;;72.55;29.90;;;1.80;99.90;;;;;;6179823;23;20450;-85
2023/01/25 07:19:21;;;;;;;67.68;29.90;;;1.80;99.90;;;;;;6179550;23;20020;-86
2023/01/25 07:21:47;;;;;;;71.25;29.83;;;1.80;99.90;;;;;;6180056;23;20350;-85
2023/01/25 07:24:14;;;;;;;75.80;29.83;;;1.90;99.90;;;;;;6182699;23;20071;-87
2023/01/25 07:26:40;;;;;;;74.85;31.00;;;1.90;99.90;;;;;;6190425;23;20007;-87
2023/01/25 07:29:05;;;;;;;77.85;30.85;;;1.80;99.90;;;;;;6184630;23;20008;-84
2023/01/25 07:31:31;;;;;;;68.95;28.95;;;1.80;99.90;;;;;;6211695;23;20001;-86
2023/01/25 07:33:57;;;;;;;78.47;30.17;;;1.70;99.90;;;;;;6210859;23;20132;-84
2023/01/25 07:36:23;;;;;;;70.50;27.75;;;1.70;99.90;;;;;;6211487;23;19996;-85
2023/01/25 07:38:55;;;;;;;69.35;30.10;;;1.70;99.90;;;;;;6211563;23;20009;-85
2023/01/25 07:41:23;;;;;;;71.93;29.48;;;1.70;99.90;;;;;;6184817;23;20011;-84
2023/01/25 07:43:49;;;;;;;68.50;28.58;;;1.60;99.90;;;;;;6184747;23;20080;-86
2023/01/25 07:46:15;;;;;;;72.35;30.67;;;1.60;99.90;;;;;;6185857;23;20040;-86
2023/01/25 07:48:46;;;;;;;71.57;28.55;;;1.60;99.90;;;;;;6210368;23;20008;-87
2023/01/25 07:51:11;;;;;;;73.50;28.05;;;1.60;99.90;;;;;;6210374;23;19997;-86
2023/01/25 07:53:43;;;;;;;69.28;28.98;;;1.60;99.90;;;;;;6209830;23;20198;-84
2023/01/25 07:56:10;;;;;;;66.70;27.77;;;1.60;99.90;;;;;;6185543;23;20063;-86
2023/01/25 07:58:36;;;;;;;66.45;28.42;;;1.60;99.90;;;;;;6211547;23;20370;-86
2023/01/25 08:01:22;;;;;;;67.40;28.15;;;1.60;99.90;;;;;;6211525;23;20008;-86
2023/01/25 08:03:48;;;;;;;75.35;30.05;;;1.60;99.90;;;;;;6212415;23;20064;-86
2023/01/25 08:06:15;;;;;;;62.00;26.55;;;1.60;99.90;;;;;;6212405;23;20000;-86
2023/01/25 08:08:44;;;;;;;67.82;28.50;;;1.60;99.90;;;;;;6211157;23;20000;-86
2023/01/25 08:11:14;;;;;;;;;;;1.60;99.90;;;;;;6185409;23;20020;-87
2023/01/25 08:13:44;;;;;;;70.93;29.02;;;1.60;99.90;;;;;;6183289;23;19993;-86
2023/01/25 08:16:21;;;;;;;68.60;27.88;;;1.60;99.90;;;;;;6211102;23;20036;-87
2023/01/25 08:18:51;;;;;;;66.63;28.20;;;1.60;99.90;;;;;;6212047;23;20008;-86
2023/01/25 08:21:17;;;;;;;62.88;27.85;;;1.60;99.90;;;;;;6212216;23;20437;-85
2023/01/25 08:23:43;;;;;;;69.88;29.17;;;1.70;99.90;;;;;;6210969;23;20055;-84
2023/01/25 08:26:12;;;;;;;71.28;28.05;;;1.60;99.90;;;;;;6210817;23;20675;-85
2023/01/25 08:28:37;;;;;;;67.13;28.58;;;1.50;99.90;;;;;;6182875;23;20341;-85
2023/01/25 08:31:11;;;;;;;67.45;27.25;;;1.50;99.90;;;;;;6211129;23;20449;-84
2023/01/25 08:33:38;;;;;;;66.20;27.30;;;1.50;99.90;;;;;;6211364;23;20005;-84
2023/01/25 08:36:04;;;;;;;68.38;27.33;;;1.50;99.90;;;;;;6210873;23;20028;-85
2023/01/25 08:38:31;;;;;;;65.75;27.55;;;1.50;99.90;;;;;;6210518;23;20001;-85
2023/01/25 08:41:04;;;;;;;67.90;26.98;;;1.50;99.90;;;;;;6210676;23;20036;-84
2023/01/25 08:43:30;;;;;;;64.25;26.50;;;1.50;99.90;;;;;;6182959;23;20001;-85
2023/01/25 08:45:56;;;;;;;65.72;27.33;;;1.50;99.90;;;;;;6184405;23;20055;-84
2023/01/25 08:48:22;;;;;;;65.20;26.55;;;1.60;99.90;;;;;;6210852;23;20149;-84
2023/01/25 08:50:48;;;;;;;70.95;28.70;;;1.50;99.90;;;;;;6211879;23;20007;-85
2023/01/25 08:53:13;;;;;;;63.80;27.55;;;1.50;99.90;;;;;;6210475;23;20435;-85
2023/01/25 08:55:41;;;;;;;68.20;28.35;;;1.60;99.90;;;;;;6210563;23;20032;-85
2023/01/25 08:58:12;;;;;;;62.92;26.02;;;1.50;99.90;;;;;;6210449;23;20007;-85
2023/01/25 09:00:41;;;;;;;64.43;27.77;;;1.50;99.90;;;;;;6210820;23;20012;-85
2023/01/25 09:03:07;;;;;;;62.17;26.95;;;1.60;99.90;;;;;;6210795;23;20027;-86
2023/01/25 09:05:34;;;;;;;62.38;25.77;;;1.60;99.90;;;;;;6183869;23;20015;-85
2023/01/25 09:08:00;;;;;;;58.55;25.27;;;1.70;99.90;;;;;;6210604;23;20050;-85
2023/01/25 09:10:26;;;;;;;63.95;26.67;;;1.70;99.90;;;;;;6210537;23;20441;-85
2023/01/25 09:12:52;;;;;;;60.85;26.45;;;1.70;99.90;;;;;;6211087;23;19997;-86
2023/01/25 09:15:18;;;;;;;67.50;28.00;;;1.80;99.90;;;;;;6211752;23;20000;-88
2023/01/25 09:17:43;;;;;;;62.67;27.30;;;1.80;99.90;;;;;;6209942;23;20027;-85
2023/01/25 09:20:10;;;;;;;72.30;27.42;;;1.80;99.90;;;;;;6210207;23;20012;-85
2023/01/25 09:22:35;;;;;;;67.25;26.17;;;1.70;99.90;;;;;;6209945;23;19997;-86
2023/01/25 09:25:01;;;;;;;70.88;27.58;;;1.70;99.90;;;;;;6183980;23;20070;-85
2023/01/25 09:27:27;;;;;;;76.68;28.42;;;1.60;99.90;;;;;;6210478;23;20011;-84
2023/01/25 09:29:52;;;;;;;73.57;27.25;;;1.60;99.90;;;;;;6211104;23;20015;-85
2023/01/25 09:32:18;;;;;;;73.22;26.70;;;1.60;99.90;;;;;;6210103;23;20334;-87
2023/01/25 09:34:43;;;;;;;72.50;29.02;;;1.60;99.90;;;;;;6210777;23;20046;-87
2023/01/25 09:37:09;;;;;;;69.43;27.83;;;1.60;99.90;;;;;;6210249;23;20028;-83
2023/01/25 09:39:34;;;;;;;72.43;27.83;;;1.70;99.90;;;;;;6210390;23;20388;-85
2023/01/25 09:42:24;;;;;;;75.82;28.60;;;1.70;99.90;;;;;;6210353;23;19996;-86
2023/01/25 09:45:05;;;;;;;78.25;29.30;;;1.70;99.90;;;;;;6211257;23;20004;-87
2023/01/25 09:47:49;;;;;;;76.68;28.55;;;1.80;99.90;;;;;;6183087;23;20004;-85
2023/01/25 09:50:30;;;;;;;74.32;28.05;;;1.80;99.90;;;;;;6210370;23;20001;-85
2023/01/25 09:53:18;;;;;;;73.45;27.90;;;1.80;99.90;;;;;;6210172;23;20012;-84
2023/01/25 09:55:52;;;;;;;74.07;29.83;;;1.80;99.90;;;;;;6183340;23;20746;-84
2023/01/25 09:58:23;;;;;;;75.28;28.05;;;1.80;99.90;;;;;;6209891;23;20047;-86
2023/01/25 10:00:54;;;;;;;72.68;28.23;;;1.80;99.90;;;;;;6183463;23;20019;-84
2023/01/25 10:03:33;;;;;;;76.50;28.40;;;1.90;99.90;;;;;;6183507;23;20035;-84
2023/01/25 10:06:01;;;;;;;76.32;30.17;;;1.90;99.90;;;;;;6183524;23;20012;-84
2023/01/25 10:09:02;;;;;;;79.03;29.88;;;2.00;99.90;;;;;;6183102;23;20000;-85
2023/01/25 10:11:30;;;;;;;79.50;28.83;;;2.00;99.90;;;;;;6184385;23;20080;-85
2023/01/25 10:13:57;;;;;;;68.57;27.48;;;2.10;99.90;;;;;;6210183;23;20031;-84
2023/01/25 10:16:37;;;;;;;69.78;28.05;;;2.20;99.90;;;;;;6210641;23;20345;-84
2023/01/25 10:19:17;;;;;;;76.80;31.08;;;2.10;99.90;;;;;;6183322;23;20015;-86
2023/01/25 10:21:47;;;;;;;74.55;28.63;;;2.20;99.90;;;;;;6210348;23;20349;-86
2023/01/25 10:24:27;;;;;;;73.13;29.17;;;2.20;99.90;;;;;;6185762;23;20052;-85
2023/01/25 10:27:13;;;;;;;78.05;28.88;;;2.20;99.90;;;;;;6212641;23;20016;-85
2023/01/25 10:29:39;;;;;;;78.25;31.35;;;2.20;99.90;;;;;;6212293;23;20022;-84
2023/01/25 10:32:18;;;;;;;79.65;29.55;;;2.20;99.90;;;;;;6211851;23;20015;-84
2023/01/25 10:34:49;;;;;;;77.18;29.67;;;2.20;99.90;;;;;;6185757;23;19997;-84
2023/01/25 10:37:26;;;;;;;80.00;30.50;;;2.20;99.90;;;;;;6184933;23;20400;-85
2023/01/25 10:39:57;;;;;;;75.28;30.60;;;2.30;99.90;;;;;;6211299;23;20099;-85
2023/01/25 10:42:26;;;;;;;82.93;32.75;;;2.30;99.90;;;;;;6212925;23;20083;-85
2023/01/25 10:44:51;;;;;;;82.65;31.48;;;2.30;99.90;;;;;;6212196;23;20001;-85
2023/01/25 10:47:23;;;;;;;77.28;29.55;;;2.30;99.90;;;;;;6211770;23;20011;-87
2023/01/25 10:49:55;;;;;;;86.18;31.65;;;2.30;99.90;;;;;;6211919;23;20004;-86
2023/01/25 10:52:30;;;;;;;84.80;32.67;;;2.40;99.90;;;;;;6185474;23;20004;-86
2023/01/25 10:55:13;;;;;;;91.40;31.65;;;2.40;99.90;;;;;;6212623;23;20028;-87
2023/01/25 10:57:44;;;;;;;82.80;30.55;;;2.40;99.90;;;;;;6185466;23;20329;-87
2023/01/25 11:00:31;;;;;;;80.65;30.40;;;2.40;99.90;;;;;;6211423;23;20008;-87
2023/01/25 11:02:57;;;;;;;85.40;32.25;;;2.30;99.90;;;;;;6212971;23;20001;-87
2023/01/25 11:05:24;;;;;;;85.68;30.95;;;2.40;99.90;;;;;;6185335;23;20097;-87
2023/01/25 11:07:49;;;;;;;71.85;28.27;;;2.40;99.90;;;;;;6211811;23;20337;-87
2023/01/25 11:10:32;;;;;;;71.03;28.92;;;2.40;99.90;;;;;;6184884;23;20004;-87
2023/01/25 11:13:19;;;;;;;80.93;30.33;;;2.40;99.90;;;;;;6212737;23;20007;-87
2023/01/25 11:15:46;;;;;;;78.50;32.03;;;2.50;99.90;;;;;;6211384;23;20008;-88
2023/01/25 11:18:28;;;;;;;81.07;31.35;;;2.60;99.90;;;;;;6211453;23;20054;-87
2023/01/25 11:21:10;;;;;;;72.68;27.50;;;2.60;99.90;;;;;;6211516;23;20357;-87
2023/01/25 11:23:36;;;;;;;77.45;31.73;;;2.50;99.90;;;;;;6184496;23;20028;-87
2023/01/25 11:26:16;;;;;;;82.13;31.73;;;2.40;99.90;;;;;;6211532;23;20000;-87
2023/01/25 11:28:43;;;;;;;76.57;32.15;;;2.50;99.90;;;;;;6211656;23;20015;-86
2023/01/25 11:31:14;;;;;;;84.55;34.72;;;2.60;99.90;;;;;;6211538;23;20001;-88
2023/01/25 11:33:40;;;;;;;78.50;32.20;;;2.70;99.90;;;;;;6211133;23;20011;-86
2023/01/25 11:36:16;;;;;;;76.22;30.23;;;2.70;99.90;;;;;;6211355;23;20004;-86
2023/01/25 11:39:17;;;;;;;81.13;29.73;;;2.80;99.90;;;;;;6211091;23;20007;-87
2023/01/25 11:42:04;;;;;;;72.50;31.50;;;2.80;99.90;;;;;;6211161;23;20008;-86
2023/01/25 11:44:42;;;;;;;79.22;30.15;;;2.90;99.90;;;;;;6212758;23;20299;-86
2023/01/25 11:47:34;;;;;;;75.77;28.33;;;2.90;99.90;;;;;;6211708;23;20000;-86
2023/01/25 11:50:37;;;;;;;71.18;29.90;;;3.00;99.90;;;;;;6212125;23;19996;-87
2023/01/25 11:53:41;;;;;;;80.00;31.50;;;3.10;99.90;;;;;;6184669;23;20341;-87
2023/01/25 11:56:44;;;;;;;78.47;31.23;;;3.10;99.90;;;;;;6210845;23;20075;-88
2023/01/25 11:59:16;;;;;;;74.28;28.90;;;3.20;99.90;;;;;;6210853;23;20063;-87
2023/01/25 12:01:56;;;;;;;73.60;31.65;;;3.10;99.90;;;;;;6211448;23;20128;-89
2023/01/25 12:04:50;;;;;;;74.25;30.45;;;3.10;99.90;;;;;;6211417;23;20008;-88
2023/01/25 12:07:29;;;;;;;70.95;31.38;;;3.10;99.90;;;;;;6184934;23;20015;-88
2023/01/25 12:10:30;;;;;;;71.30;29.88;;;3.10;99.90;;;;;;6185255;23;20043;-88
2023/01/25 12:13:05;;;;;;;81.47;31.05;;;3.00;99.90;;;;;;6184482;23;20005;-88
2023/01/25 12:16:08;;;;;;;77.40;31.60;;;3.00;99.90;;;;;;6184669;23;20147;-86
2023/01/25 12:18:45;;;;;;;76.53;29.88;;;3.10;99.90;;;;;;6211048;23;20059;-87
2023/01/25 12:21:31;;;;;;;76.90;31.60;;;3.10;99.90;;;;;;6211064;23;20036;-87
2023/01/25 12:24:24;;;;;;;75.97;30.08;;;3.10;99.90;;;;;;6185270;23;20001;-87
2023/01/25 12:27:15;;;;;;;75.07;30.23;;;3.10;99.90;;;;;;6210971;23;20019;-87
2023/01/25 12:29:49;;;;;;;83.60;31.35;;;3.20;99.90;;;;;;6183909;23;20036;-88
2023/01/25 12:32:36;;;;;;;76.72;30.60;;;3.20;99.90;;;;;;6210947;23;20008;-89
2023/01/25 12:35:19;;;;;;;82.13;31.85;;;3.30;99.90;;;;;;6212199;23;20084;-88
2023/01/25 12:37:46;;;;;;;77.80;30.95;;;3.30;99.90;;;;;;6211042;23;20005;-89
2023/01/25 12:40:19;;;;;;;78.38;33.08;;;3.40;99.90;;;;;;6210226;23;20437;-88
2023/01/25 12:43:08;;;;;;;75.90;30.90;;;3.40;99.90;;;;;;6182667;23;20062;-88
2023/01/25 12:45:36;;;;;;;79.90;33.25;;;3.30;99.90;;;;;;6183998;23;20032;-86
2023/01/25 12:48:26;;;;;;;80.20;30.48;;;3.30;99.90;;;;;;6211844;23;20059;-88
2023/01/25 12:50:58;;;;;;;77.47;30.30;;;3.30;99.90;;;;;;6210322;23;20012;-86
2023/01/25 12:53:28;;;;;;;75.95;29.70;;;3.40;99.90;;;;;;6183974;23;20207;-89